Time;durP1;ratioP1;P1;durP2;ratioP2;P2;SDS_P1;SDS_P2;PMS_P1;PMS_P2;Temp;Humidity;BMP_temperature;BMP_pressure;BME280_temperature;BME280_humidity;BME280_pressure;Samples;Min_cycle;Max_cycle;Signal;HPM_P1;HPM_P2
2021/06/21 00:00:33;;;;;;;3.72;2.42;;;;;;;10.04;94.56;101211.28;4420635;32;19958;-66
2021/06/21 00:03:00;;;;;;;4.10;2.58;;;;;;;10.34;93.80;101214.28;4420931;32;20073;-66
2021/06/21 00:05:27;;;;;;;4.50;2.33;;;;;;;10.42;93.77;101206.13;4420614;32;20446;-66
2021/06/21 00:07:53;;;;;;;3.22;2.37;;;;;;;10.60;92.95;101192.22;4420272;32;20127;-65
2021/06/21 00:10:21;;;;;;;3.08;2.33;;;;;;;10.77;92.16;101188.81;4420476;32;20071;-65
2021/06/21 00:12:49;;;;;;;3.25;2.37;;;;;;;10.87;91.62;101184.00;4421058;32;20060;-66
2021/06/21 00:15:20;;;;;;;2.78;2.10;;;;;;;11.01;91.34;101184.16;4420346;32;20128;-66
2021/06/21 00:17:47;;;;;;;2.58;2.30;;;;;;;11.01;91.24;101186.75;4421040;32;20052;-66
2021/06/21 00:20:15;;;;;;;;;;;;;;;10.81;92.22;101197.31;4421024;32;20105;-66
2021/06/21 00:22:42;;;;;;;3.25;2.00;;;;;;;11.03;91.37;101200.53;4418674;32;19941;-66
2021/06/21 00:25:11;;;;;;;2.65;2.33;;;;;;;11.08;90.86;101192.50;4420631;32;20089;-65
2021/06/21 00:27:39;;;;;;;2.70;2.50;;;;;;;11.11;90.97;101197.56;4420390;32;20098;-65
2021/06/21 00:30:09;;;;;;;2.45;2.20;;;;;;;10.98;91.35;101197.31;4420197;32;20091;-66
2021/06/21 00:32:37;;;;;;;3.10;2.20;;;;;;;11.08;90.96;101188.12;4420790;32;20453;-65
2021/06/21 00:35:05;;;;;;;2.65;2.20;;;;;;;11.18;90.17;101191.12;4420677;32;20054;-65
2021/06/21 00:37:32;;;;;;;2.72;2.22;;;;;;;11.22;89.97;101192.63;4420313;32;20105;-65
2021/06/21 00:39:59;;;;;;;3.72;2.65;;;;;;;11.24;89.75;101190.81;4420416;32;20067;-68
2021/06/21 00:42:26;;;;;;;3.45;3.00;;;;;;;11.18;90.27;101191.12;4420375;32;20071;-65
2021/06/21 00:44:53;;;;;;;2.50;2.30;;;;;;;11.09;90.74;101191.56;4419828;32;20109;-65
2021/06/21 00:47:19;;;;;;;4.93;2.37;;;;;;;11.22;90.47;101197.84;4420358;32;20211;-65
2021/06/21 00:49:48;;;;;;;4.18;1.98;;;;;;;11.24;90.12;101209.03;4420225;32;20087;-65
2021/06/21 00:52:17;;;;;;;2.30;2.10;;;;;;;11.25;89.80;101220.28;4420690;32;20109;-66
2021/06/21 00:54:45;;;;;;;2.20;2.00;;;;;;;11.17;90.72;101207.66;4423054;32;20414;-65
2021/06/21 00:57:12;;;;;;;2.37;2.17;;;;;;;11.44;89.41;101200.22;4422764;32;20060;-65
2021/06/21 00:59:39;;;;;;;3.12;2.03;;;;;;;11.42;89.32;101188.19;4423393;32;20097;-66
2021/06/21 01:02:06;;;;;;;2.17;1.98;;;;;;;11.39;89.42;101176.16;4423235;32;20105;-65
2021/06/21 01:04:33;;;;;;;2.90;2.28;;;;;;;11.34;89.23;101167.75;4423375;32;20101;-65
2021/06/21 01:07:01;;;;;;;2.37;2.10;;;;;;;11.14;90.67;101178.34;4422937;32;20101;-65
2021/06/21 01:09:29;;;;;;;4.00;2.00;;;;;;;11.34;89.73;101170.34;4423114;32;20053;-65
2021/06/21 01:12:01;;;;;;;2.17;1.90;;;;;;;11.31;89.56;101184.38;4422529;32;20101;-65
2021/06/21 01:14:32;;;;;;;2.70;2.00;;;;;;;11.44;88.95;101184.59;4423047;32;20056;-66
2021/06/21 01:17:10;;;;;;;2.20;2.00;;;;;;;11.59;88.49;101182.13;4423027;32;20098;-66
2021/06/21 01:20:03;;;;;;;2.00;1.90;;;;;;;11.52;88.95;101186.78;4423214;32;20037;-65
2021/06/21 01:23:10;;;;;;;2.47;1.73;;;;;;;11.33;89.73;101211.19;4423152;32;20156;-66
2021/06/21 01:25:42;;;;;;;4.20;1.75;;;;;;;11.49;89.50;101210.41;4423083;32;20393;-65
2021/06/21 01:28:15;;;;;;;2.37;1.80;;;;;;;11.74;88.27;101213.44;4422533;32;20072;-65
2021/06/21 01:30:54;;;;;;;3.15;2.00;;;;;;;11.49;89.80;101208.62;4423008;32;20122;-65
2021/06/21 01:33:25;;;;;;;3.15;2.20;;;;;;;11.59;88.74;101203.81;4423014;32;20121;-66
2021/06/21 01:35:57;;;;;;;3.50;1.90;;;;;;;11.39;90.01;101209.19;4422993;32;20094;-65
2021/06/21 01:38:28;;;;;;;3.42;2.00;;;;;;;11.50;89.62;101205.09;4422628;32;20094;-65
2021/06/21 01:40:57;;;;;;;2.55;1.77;;;;;;;11.68;88.41;101195.47;4420506;32;20097;-66
2021/06/21 01:43:28;;;;;;;2.00;1.90;;;;;;;11.57;89.03;101204.81;4422351;32;20046;-65
2021/06/21 01:45:56;;;;;;;3.83;2.00;;;;;;;11.39;89.26;101194.41;4422159;32;20109;-65
2021/06/21 01:48:27;;;;;;;2.22;2.03;;;;;;;11.57;88.94;101204.81;4422084;32;20075;-68
2021/06/21 01:50:59;;;;;;;2.50;2.08;;;;;;;11.52;89.00;101205.88;4422224;32;20105;-65
2021/06/21 01:53:29;;;;;;;3.80;1.80;;;;;;;11.71;88.50;101215.31;4420526;32;20046;-65
2021/06/21 01:56:00;;;;;;;3.22;1.90;;;;;;;11.81;88.12;101207.88;4421950;32;20110;-65
2021/06/21 01:58:30;;;;;;;3.28;1.83;;;;;;;11.67;88.64;101209.44;4420909;32;20102;-65
2021/06/21 02:00:58;;;;;;;3.53;2.08;;;;;;;11.69;88.80;101214.59;4420168;32;20104;-65
2021/06/21 02:03:27;;;;;;;2.67;1.87;;;;;;;11.81;87.99;101218.31;4420333;32;20397;-65
2021/06/21 02:05:55;;;;;;;1.80;1.70;;;;;;;11.90;87.71;101236.94;4420274;32;20050;-65
2021/06/21 02:08:22;;;;;;;2.65;1.80;;;;;;;11.92;87.43;101253.38;4421954;32;20110;-65
2021/06/21 02:10:51;;;;;;;2.28;2.08;;;;;;;11.70;89.08;101257.97;4420110;32;20059;-66
2021/06/21 02:13:20;;;;;;;2.55;1.70;;;;;;;11.64;90.01;101253.91;4422104;32;20053;-65
2021/06/21 02:15:48;;;;;;;1.80;1.70;;;;;;;11.91;89.32;101235.19;4420620;32;20083;-66
2021/06/21 02:18:19;;;;;;;1.83;1.73;;;;;;;11.91;88.42;101246.44;4421643;32;20064;-65
2021/06/21 02:20:48;;;;;;;2.08;1.87;;;;;;;11.92;88.60;101247.28;4421706;32;20049;-65
2021/06/21 02:23:16;;;;;;;1.90;1.80;;;;;;;11.80;88.79;101245.31;4420280;32;20054;-65
2021/06/21 02:25:48;;;;;;;3.00;1.90;;;;;;;12.02;87.83;101217.19;4422183;32;20097;-66
2021/06/21 02:28:17;;;;;;;2.95;1.70;;;;;;;11.78;89.00;101214.09;4421638;32;20091;-65
2021/06/21 02:30:44;;;;;;;2.10;1.90;;;;;;;12.02;88.04;101237.22;4421483;32;20675;-65
2021/06/21 02:33:13;;;;;;;2.47;2.00;;;;;;;11.97;87.81;101232.22;4419708;32;20448;-65
2021/06/21 02:35:40;;;;;;;4.40;2.05;;;;;;;11.84;89.14;101205.94;4421600;32;20064;-65
2021/06/21 02:38:08;;;;;;;2.72;2.15;;;;;;;11.89;88.71;101182.25;4421669;32;20404;-65
2021/06/21 02:40:35;;;;;;;5.30;2.30;;;;;;;11.79;89.41;101171.47;4421457;32;20064;-66
2021/06/21 02:43:02;;;;;;;;;;;;;;;11.47;91.24;101171.38;4422015;32;20105;-66
2021/06/21 02:45:29;;;;;;;3.30;2.08;;;;;;;11.55;91.41;101184.03;4419840;32;19997;-65
2021/06/21 02:47:56;;;;;;;;;;;;;;;11.74;90.12;101202.16;4421433;32;20083;-65
2021/06/21 02:50:24;;;;;;;3.90;2.50;;;;;;;11.65;90.97;101203.47;4421791;32;20343;-65
2021/06/21 02:53:00;;;;;;;2.75;2.30;;;;;;;11.50;91.93;101199.87;4421274;32;20172;-65
2021/06/21 02:55:37;;;;;;;2.70;2.28;;;;;;;11.38;92.70;101187.50;4421784;32;20463;-66
2021/06/21 02:58:11;;;;;;;3.67;2.10;;;;;;;11.36;93.20;101180.69;4419794;32;20049;-65
2021/06/21 03:00:40;;;;;;;2.20;2.00;;;;;;;11.67;91.94;101169.50;4421776;32;20435;-65
2021/06/21 03:03:08;;;;;;;4.47;2.10;;;;;;;11.66;91.43;101186.94;4421001;32;20049;-66
2021/06/21 03:05:37;;;;;;;2.17;1.87;;;;;;;11.71;91.68;101189.25;4421102;32;20037;-65
2021/06/21 03:08:05;;;;;;;4.47;2.45;;;;;;;11.84;90.85;101192.06;4421384;32;20072;-66
2021/06/21 03:10:38;;;;;;;2.10;1.90;;;;;;;11.61;92.13;101186.31;4419479;32;20046;-65
2021/06/21 03:13:06;;;;;;;2.80;1.98;;;;;;;11.79;91.90;101176.69;4421371;32;20038;-65
2021/06/21 03:15:34;;;;;;;1.77;1.67;;;;;;;11.85;91.28;101168.53;4421219;32;20046;-65
2021/06/21 03:18:01;;;;;;;2.85;2.17;;;;;;;12.02;90.41;101162.41;4420722;32;20401;-65
2021/06/21 03:20:29;;;;;;;3.67;2.30;;;;;;;11.91;91.15;101149.97;4419765;32;20054;-66
2021/06/21 03:22:57;;;;;;;2.58;1.83;;;;;;;11.92;91.02;101138.63;4420748;32;20050;-65
2021/06/21 03:25:26;;;;;;;2.30;1.87;;;;;;;11.87;91.09;101122.41;4421309;32;20085;-66
2021/06/21 03:27:56;;;;;;;4.97;2.30;;;;;;;11.91;91.23;101133.47;4419478;32;20087;-65
2021/06/21 03:30:24;;;;;;;2.17;2.00;;;;;;;12.06;90.92;101129.19;4421236;32;20049;-65
2021/06/21 03:32:52;;;;;;;3.90;2.28;;;;;;;11.90;91.60;101108.34;4420793;32;20553;-65
2021/06/21 03:35:21;;;;;;;5.68;2.30;;;;;;;12.14;90.92;101098.31;4420659;32;20097;-65
2021/06/21 03:37:48;;;;;;;2.90;2.30;;;;;;;12.12;91.15;101093.16;4421300;32;20042;-65
2021/06/21 03:40:15;;;;;;;2.37;2.15;;;;;;;12.11;91.35;101088.06;4418877;32;20050;-65
2021/06/21 03:42:42;;;;;;;;;;;;;;;12.19;91.22;101089.28;4420965;32;20121;-65
2021/06/21 03:45:12;;;;;;;3.22;2.00;;;;;;;12.38;90.49;101098.69;4420371;32;20368;-68
2021/06/21 03:47:40;;;;;;;6.55;2.20;;;;;;;12.41;90.47;101091.53;4420639;32;20050;-66
2021/06/21 03:50:09;;;;;;;2.95;1.87;;;;;;;12.38;90.43;101077.81;4420431;32;20069;-66
2021/06/21 03:52:35;;;;;;;5.05;2.00;;;;;;;12.28;91.06;101082.75;4420645;32;20042;-66
2021/06/21 03:55:09;;;;;;;5.25;2.15;;;;;;;12.49;90.75;101069.38;4420873;32;20108;-66
2021/06/21 03:57:38;;;;;;;4.30;2.10;;;;;;;12.48;90.46;101067.69;4421166;32;20434;-66
2021/06/21 04:00:09;;;;;;;2.75;1.95;;;;;;;12.40;90.98;101074.19;4420904;32;20046;-66
2021/06/21 04:02:37;;;;;;;2.90;1.90;;;;;;;12.41;91.33;101075.88;4421104;32;20064;-66
2021/06/21 04:05:05;;;;;;;2.97;2.08;;;;;;;12.73;90.53;101065.31;4420863;32;20062;-66
2021/06/21 04:07:32;;;;;;;4.55;2.03;;;;;;;12.74;90.55;101059.19;4420943;32;20099;-66
2021/06/21 04:09:59;;;;;;;3.30;2.00;;;;;;;12.75;91.32;101053.03;4420474;32;20050;-66
2021/06/21 04:12:26;;;;;;;2.05;1.95;;;;;;;12.75;91.33;101057.41;4421007;32;20045;-66
2021/06/21 04:14:53;;;;;;;2.17;1.83;;;;;;;12.78;90.93;101054.63;4420943;32;20481;-67
2021/06/21 04:17:20;;;;;;;3.92;2.10;;;;;;;12.95;90.48;101049.22;4420460;32;20042;-68
2021/06/21 04:19:50;;;;;;;3.25;2.08;;;;;;;13.10;89.69;101051.84;4420990;32;20079;-66
2021/06/21 04:22:16;;;;;;;3.03;2.00;;;;;;;13.46;89.48;101044.38;4420683;32;20064;-66
2021/06/21 04:24:43;;;;;;;6.05;2.28;;;;;;;13.78;88.27;101051.97;4420464;32;20434;-66
2021/06/21 04:27:12;;;;;;;3.25;2.08;;;;;;;13.84;88.21;101048.13;4418944;32;20109;-66
2021/06/21 04:29:39;;;;;;;2.90;2.00;;;;;;;14.08;86.88;101043.09;4423251;32;20471;-66
2021/06/21 04:32:06;;;;;;;2.53;2.30;;;;;;;14.26;86.63;101028.81;4423216;32;20034;-67
2021/06/21 04:34:33;;;;;;;4.55;2.60;;;;;;;13.99;87.80;101035.84;4423300;32;20064;-66
2021/06/21 04:37:01;;;;;;;2.97;2.60;;;;;;;13.88;87.60;101024.28;4423554;32;20068;-67
2021/06/21 04:39:28;;;;;;;4.32;2.65;;;;;;;14.09;87.54;101032.50;4423659;32;20054;-67
2021/06/21 04:41:55;;;;;;;3.62;2.65;;;;;;;14.05;87.01;101023.22;4423421;32;20038;-67
2021/06/21 04:44:22;;;;;;;4.75;3.10;;;;;;;13.78;88.17;101027.59;4423495;32;20112;-66
2021/06/21 04:46:49;;;;;;;8.40;3.22;;;;;;;14.03;87.74;101022.47;4422019;32;20451;-67
2021/06/21 04:49:16;;;;;;;4.18;3.08;;;;;;;14.21;88.37;101009.13;4422856;32;20042;-67
2021/06/21 04:51:44;;;;;;;4.70;3.15;;;;;;;14.11;87.84;101004.47;4423506;32;20091;-67
2021/06/21 04:54:14;;;;;;;6.72;3.05;;;;;;;14.00;88.67;100999.13;4422793;32;20425;-67
2021/06/21 04:56:40;;;;;;;5.32;3.28;;;;;;;13.94;89.10;100987.25;4421807;32;20057;-67
2021/06/21 04:59:07;;;;;;;4.57;3.30;;;;;;;13.91;88.29;100987.47;4423198;32;20068;-67
2021/06/21 05:01:34;;;;;;;4.32;3.50;;;;;;;13.87;89.21;100969.44;4421246;32;20106;-66
2021/06/21 05:04:02;;;;;;;3.42;2.95;;;;;;;14.19;88.23;100961.28;4422767;32;20101;-67
2021/06/21 05:06:29;;;;;;;4.82;3.20;;;;;;;14.52;86.38;100961.59;4423352;32;20103;-66
2021/06/21 05:08:56;;;;;;;;;;;;;;;14.88;86.60;100960.03;4422875;32;20097;-66
2021/06/21 05:11:24;;;;;;;3.47;3.00;;;;;;;15.16;86.59;100963.34;4422624;32;19988;-67
2021/06/21 05:13:51;;;;;;;3.85;3.00;;;;;;;15.30;86.79;100955.31;4423246;32;20434;-66
2021/06/21 05:16:18;;;;;;;6.55;3.55;;;;;;;15.30;85.69;100951.87;4422468;32;20034;-67
2021/06/21 05:18:45;;;;;;;4.35;2.85;;;;;;;15.49;84.96;100949.63;4423124;32;20045;-67
2021/06/21 05:21:11;;;;;;;5.37;3.47;;;;;;;15.58;84.71;100945.47;4422926;32;20046;-67
2021/06/21 05:23:38;;;;;;;5.45;3.15;;;;;;;15.63;84.27;100945.97;4422655;32;20444;-67
2021/06/21 05:26:05;;;;;;;7.85;3.50;;;;;;;15.83;83.87;100949.78;4422877;32;20447;-67
2021/06/21 05:28:34;;;;;;;4.87;2.95;;;;;;;15.97;85.54;100951.38;4421233;32;20075;-67
2021/06/21 05:31:01;;;;;;;4.68;3.30;;;;;;;16.24;82.47;100948.47;4422570;32;20049;-67
2021/06/21 05:33:27;;;;;;;;;;;;;;;16.28;81.29;100950.72;4422823;32;20045;-67
2021/06/21 05:35:54;;;;;;;;;;;;;;;16.25;82.11;100952.78;4423174;32;19963;-67
2021/06/21 05:38:21;;;;;;;6.47;3.50;;;;;;;16.54;81.70;100948.78;4422119;32;19945;-70
2021/06/21 05:40:48;;;;;;;5.70;3.85;;;;;;;16.44;81.69;100936.44;4422472;32;20071;-72
2021/06/21 05:43:15;;;;;;;;;;;;;;;16.61;81.21;100933.34;4422312;32;20049;-69
2021/06/21 05:45:43;;;;;;;;;;;;;;;16.82;81.49;100932.66;4422523;32;20352;-68
2021/06/21 05:48:10;;;;;;;5.35;3.67;;;;;;;16.98;79.32;100927.91;4422353;32;19933;-69
2021/06/21 05:50:38;;;;;;;7.97;3.90;;;;;;;17.28;80.51;100929.00;4422383;32;20046;-69
2021/06/21 05:53:05;;;;;;;7.20;3.97;;;;;;;17.59;79.21;100917.66;4421009;32;20060;-69
2021/06/21 05:55:32;;;;;;;;;;;;;;;17.34;79.94;100924.09;4422359;32;20051;-69
2021/06/21 05:58:00;;;;;;;;;;;;;;;17.41;78.29;100920.00;4422552;32;20351;-69
2021/06/21 06:00:27;;;;;;;13.77;4.43;;;;;;;17.75;77.82;100916.41;4421998;32;19982;-68
2021/06/21 06:02:55;;;;;;;;;;;;;;;17.64;78.31;100912.84;4421024;32;20078;-69
2021/06/21 06:05:22;;;;;;;5.37;4.10;;;;;;;17.42;78.04;100897.19;4421919;32;19993;-69
2021/06/21 06:07:49;;;;;;;6.35;4.07;;;;;;;17.20;78.85;100887.56;4422381;32;20067;-69
2021/06/21 06:10:16;;;;;;;5.75;4.60;;;;;;;17.55;78.08;100887.31;4422032;32;20064;-68
2021/06/21 06:12:44;;;;;;;11.88;5.18;;;;;;;17.79;77.63;100887.13;4421785;32;20102;-66
2021/06/21 06:15:12;;;;;;;13.65;4.80;;;;;;;18.02;76.87;100890.44;4421689;32;20118;-68
2021/06/21 06:17:40;;;;;;;8.82;4.53;;;;;;;18.43;76.41;100885.25;4422219;32;20033;-69
2021/06/21 06:20:09;;;;;;;12.07;4.65;;;;;;;18.19;77.78;100889.03;4421494;32;20062;-69
2021/06/21 06:22:36;;;;;;;10.20;4.55;;;;;;;17.77;79.00;100888.16;4422173;32;20106;-69
2021/06/21 06:25:04;;;;;;;8.10;4.60;;;;;;;17.47;79.48;100873.97;4421377;32;20054;-68
2021/06/21 06:27:31;;;;;;;6.20;4.10;;;;;;;17.36;80.84;100868.75;4421641;32;20084;-69
2021/06/21 06:29:58;;;;;;;5.82;4.55;;;;;;;17.11;82.44;100869.88;4421348;32;20101;-69
2021/06/21 06:32:24;;;;;;;7.80;4.60;;;;;;;17.31;81.47;100855.13;4421494;32;20545;-69
2021/06/21 06:34:51;;;;;;;;;;;;;;;17.92;81.29;100859.78;4421850;32;20064;-66
2021/06/21 06:37:19;;;;;;;;;;;;;;;18.05;78.91;100858.59;4419831;32;19947;-66
2021/06/21 06:39:46;;;;;;;7.87;4.62;;;;;;;18.34;77.39;100860.56;4421559;32;20319;-67
2021/06/21 06:42:12;;;;;;;;;;;;;;;18.80;80.47;100853.91;4421943;32;20167;-67
2021/06/21 06:44:39;;;;;;;;;;;;;;;19.09;75.39;100855.81;4421521;32;19959;-66
2021/06/21 06:47:06;;;;;;;;;;;;;;;18.76;77.23;100847.28;4422016;32;19993;-66
2021/06/21 06:49:33;;;;;;;6.65;4.15;;;;;;;18.82;76.34;100852.00;4419590;32;20303;-66
2021/06/21 06:51:59;;;;;;;;;;;;;;;19.19;75.43;100845.22;4420960;32;20118;-66
2021/06/21 06:54:29;;;;;;;8.35;4.40;;;;;;;19.75;73.81;100841.91;4421196;32;20017;-67
2021/06/21 06:56:59;;;;;;;6.15;4.35;;;;;;;20.09;74.44;100847.53;4421383;32;20049;-67
2021/06/21 06:59:29;;;;;;;6.53;4.03;;;;;;;20.18;72.32;100845.81;4421081;32;20033;-66
2021/06/21 07:01:57;;;;;;;7.37;4.32;;;;;;;20.58;69.88;100834.16;4420113;32;20045;-67
2021/06/21 07:04:24;;;;;;;6.47;4.12;;;;;;;21.57;67.21;100830.66;4421127;32;20149;-67
2021/06/21 07:06:51;;;;;;;8.52;4.28;;;;;;;21.98;66.84;100826.44;4421489;32;20513;-66
2021/06/21 07:09:19;;;;;;;5.18;3.97;;;;;;;22.02;66.20;100824.34;4420701;32;20109;-67
2021/06/21 07:11:50;;;;;;;5.90;3.83;;;;;;;22.18;65.52;100808.50;4420960;32;20063;-68
2021/06/21 07:14:17;;;;;;;18.35;4.50;;;;;;;22.64;63.35;100808.22;4421322;32;20062;-67
2021/06/21 07:16:45;;;;;;;7.45;4.03;;;;;;;23.19;63.62;100807.66;4420932;32;20560;-67
2021/06/21 07:19:12;;;;;;;9.50;4.53;;;;;;;23.68;61.37;100797.81;4420726;32;20101;-67
2021/06/21 07:21:39;;;;;;;6.53;4.05;;;;;;;23.35;63.05;100797.06;4419684;32;20041;-67
2021/06/21 07:24:07;;;;;;;9.55;4.37;;;;;;;23.65;61.53;100795.50;4420645;32;20959;-67
2021/06/21 07:26:34;;;;;;;7.72;4.87;;;;;;;23.79;60.23;100798.50;4421080;32;20252;-67
2021/06/21 07:29:02;;;;;;;7.32;4.40;;;;;;;23.76;60.73;100799.66;4420724;32;20068;-68
2021/06/21 07:31:29;;;;;;;6.10;4.53;;;;;;;24.40;58.28;100794.28;4419041;32;20106;-68
2021/06/21 07:33:56;;;;;;;8.23;4.40;;;;;;;23.70;60.11;100789.69;4420799;32;20061;-67
2021/06/21 07:36:23;;;;;;;6.72;4.35;;;;;;;24.17;57.97;100775.63;4420882;32;20101;-67
2021/06/21 07:38:50;;;;;;;10.98;5.03;;;;;;;25.14;56.44;100777.88;4420924;32;20056;-67
2021/06/21 07:41:17;;;;;;;8.68;5.43;;;;;;;24.76;56.75;100772.50;4420962;32;20049;-67
2021/06/21 07:43:44;;;;;;;13.82;5.10;;;;;;;25.25;58.00;100772.16;4418953;32;20428;-67
2021/06/21 07:46:12;;;;;;;6.35;4.57;;;;;;;25.80;55.82;100756.81;4420315;32;20061;-68
2021/06/21 07:48:41;;;;;;;7.70;4.78;;;;;;;24.91;57.13;100752.13;4420613;32;20052;-67
2021/06/21 07:51:09;;;;;;;8.38;5.50;;;;;;;25.15;56.54;100753.75;4420790;32;20062;-67
2021/06/21 07:53:37;;;;;;;7.40;5.12;;;;;;;25.37;56.83;100756.59;4419087;32;20047;-67
2021/06/21 07:56:05;;;;;;;9.98;5.60;;;;;;;25.09;56.88;100748.31;4418680;32;20042;-67
2021/06/21 07:58:32;;;;;;;8.13;5.87;;;;;;;25.42;56.58;100740.88;4421065;32;20378;-68
2021/06/21 08:00:59;;;;;;;7.00;5.22;;;;;;;25.61;56.69;100737.69;4420600;32;20068;-69
2021/06/21 08:03:27;;;;;;;8.63;5.50;;;;;;;26.05;54.46;100733.41;4424071;32;20117;-69
2021/06/21 08:05:54;;;;;;;6.90;5.35;;;;;;;26.71;53.96;100731.44;4424052;32;20042;-69
2021/06/21 08:08:21;;;;;;;7.57;5.70;;;;;;;26.42;53.84;100728.87;4422388;32;20072;-69
2021/06/21 08:10:48;;;;;;;7.90;5.93;;;;;;;27.34;52.20;100715.56;4423808;32;20084;-68
2021/06/21 08:13:14;;;;;;;8.82;5.97;;;;;;;27.01;53.07;100711.81;4423259;32;20144;-67
2021/06/21 08:15:41;;;;;;;6.35;5.30;;;;;;;27.60;51.39;100721.28;4423501;32;20076;-68
2021/06/21 08:18:10;;;;;;;10.13;5.70;;;;;;;28.22;50.95;100713.12;4423798;32;20103;-68
2021/06/21 08:20:42;;;;;;;7.47;5.90;;;;;;;27.64;52.72;100699.28;4423918;32;20117;-68
2021/06/21 08:23:09;;;;;;;8.20;5.65;;;;;;;25.40;56.32;100694.97;4423749;32;20049;-68
2021/06/21 08:25:36;;;;;;;8.77;5.97;;;;;;;24.82;57.72;100696.50;4421738;32;20073;-68
2021/06/21 08:28:03;;;;;;;9.70;6.37;;;;;;;24.60;58.90;100700.81;4423004;32;20050;-68
2021/06/21 08:30:30;;;;;;;10.52;6.87;;;;;;;24.90;59.16;100689.25;4423555;32;20047;-69
2021/06/21 08:32:57;;;;;;;8.02;6.22;;;;;;;25.71;56.96;100696.62;4421479;32;20129;-68
2021/06/21 08:35:24;;;;;;;8.65;6.90;;;;;;;25.32;59.79;100687.87;4423386;32;20049;-68
2021/06/21 08:37:53;;;;;;;13.30;7.60;;;;;;;25.27;58.56;100684.94;4423735;32;20033;-66
2021/06/21 08:40:22;;;;;;;10.05;6.68;;;;;;;26.36;55.91;100681.59;4423422;32;20064;-66
2021/06/21 08:42:50;;;;;;;10.10;7.25;;;;;;;26.60;55.23;100683.94;4423148;32;20144;-67
2021/06/21 08:45:17;;;;;;;10.35;6.97;;;;;;;27.24;53.67;100696.41;4421496;32;20075;-67
2021/06/21 08:47:45;;;;;;;7.43;6.07;;;;;;;28.55;50.13;100677.63;4423518;32;20060;-68
2021/06/21 08:50:14;;;;;;;9.55;6.50;;;;;;;28.54;51.35;100684.03;4423225;32;20038;-68
2021/06/21 08:52:43;;;;;;;13.15;6.80;;;;;;;30.21;47.50;100675.62;4423466;32;20117;-68
2021/06/21 08:55:13;;;;;;;8.50;6.05;;;;;;;29.51;48.52;100673.63;4423234;32;20037;-68
2021/06/21 08:57:43;;;;;;;7.93;7.12;;;;;;;27.54;52.82;100664.09;4422861;32;20042;-67
2021/06/21 09:00:12;;;;;;;7.80;7.00;;;;;;;26.96;53.66;100674.19;4422955;32;20063;-67
2021/06/21 09:02:39;;;;;;;11.15;6.87;;;;;;;28.07;52.80;100669.69;4422663;32;20114;-68
2021/06/21 09:05:07;;;;;;;9.35;6.50;;;;;;;27.89;51.04;100664.06;4421050;32;20123;-67
2021/06/21 09:07:34;;;;;;;10.05;6.12;;;;;;;29.07;48.74;100659.12;4421077;32;20141;-67
2021/06/21 09:10:05;;;;;;;12.05;6.28;;;;;;;29.03;48.68;100656.00;4422998;32;20043;-68
2021/06/21 09:12:33;;;;;;;9.25;6.40;;;;;;;28.18;50.87;100655.75;4422576;32;20373;-68
2021/06/21 09:15:07;;;;;;;8.75;6.30;;;;;;;26.96;54.35;100660.84;4422289;32;20050;-67
2021/06/21 09:17:38;;;;;;;9.07;6.40;;;;;;;26.55;52.81;100642.84;4423103;32;20064;-67
2021/06/21 09:20:07;;;;;;;8.55;6.03;;;;;;;26.76;53.45;100637.47;4421323;32;20058;-67
2021/06/21 09:22:37;;;;;;;7.50;5.40;;;;;;;28.76;48.21;100636.47;4422124;32;20046;-67
2021/06/21 09:25:07;;;;;;;11.25;6.22;;;;;;;29.99;45.76;100642.94;4422309;32;20038;-67
2021/06/21 09:27:36;;;;;;;8.50;5.68;;;;;;;30.88;44.17;100633.03;4421130;32;20165;-67
2021/06/21 09:30:06;;;;;;;8.93;5.93;;;;;;;30.64;44.46;100638.19;4422315;32;20102;-67
2021/06/21 09:32:45;;;;;;;9.27;5.45;;;;;;;31.02;43.78;100634.56;4422303;32;20042;-67
2021/06/21 09:35:34;;;;;;;8.60;5.72;;;;;;;31.09;42.73;100624.56;4420877;32;20413;-67
2021/06/21 09:38:03;;;;;;;10.77;5.30;;;;;;;30.51;43.70;100631.06;4422073;32;20050;-67
2021/06/21 09:40:32;;;;;;;10.02;5.60;;;;;;;31.15;42.72;100617.47;4422768;32;20042;-67
2021/06/21 09:43:17;;;;;;;9.25;5.60;;;;;;;31.23;42.98;100618.00;4422341;32;20113;-68
2021/06/21 09:46:18;;;;;;;6.90;5.07;;;;;;;31.62;41.34;100626.66;4422183;32;20086;-67
2021/06/21 09:48:47;;;;;;;8.27;4.97;;;;;;;30.88;42.42;100606.19;4422089;32;20033;-68
2021/06/21 09:51:29;;;;;;;7.00;5.25;;;;;;;31.29;41.61;100613.59;4421790;32;20527;-67
2021/06/21 09:53:59;;;;;;;7.00;5.43;;;;;;;32.49;40.37;100612.00;4420195;32;20157;-67
2021/06/21 09:56:47;;;;;;;11.25;5.65;;;;;;;31.61;41.42;100608.88;4420450;32;20101;-68
2021/06/21 09:59:21;;;;;;;8.23;5.82;;;;;;;31.75;41.08;100614.09;4415668;32;20038;-67
2021/06/21 10:02:02;;;;;;;9.70;6.00;;;;;;;30.47;44.24;100624.50;4422226;32;20042;-67
2021/06/21 10:04:29;;;;;;;10.63;6.80;;;;;;;29.50;46.17;100613.03;4422180;32;20034;-67
2021/06/21 10:06:56;;;;;;;11.60;6.50;;;;;;;29.87;46.30;100600.72;4421795;32;20109;-67
2021/06/21 10:09:23;;;;;;;10.88;6.40;;;;;;;30.34;45.77;100597.72;4422371;32;20129;-67
2021/06/21 10:11:49;;;;;;;7.97;5.50;;;;;;;32.63;41.23;100591.88;4420649;32;20058;-70
2021/06/21 10:14:18;;;;;;;8.35;5.95;;;;;;;31.86;42.34;100597.19;4420768;32;20153;-70
2021/06/21 10:16:48;;;;;;;9.38;5.87;;;;;;;30.93;42.90;100579.47;4422232;32;20042;-71
2021/06/21 10:19:16;;;;;;;10.38;5.87;;;;;;;30.90;44.68;100578.06;4422116;32;20518;-70
2021/06/21 10:21:45;;;;;;;8.25;6.05;;;;;;;31.51;42.75;100572.84;4422035;32;20457;-70
2021/06/21 10:24:12;;;;;;;6.35;5.28;;;;;;;31.30;43.47;100564.16;4421408;32;20038;-70
2021/06/21 10:26:39;;;;;;;8.88;5.50;;;;;;;31.76;42.23;100552.00;4419568;32;20046;-70
2021/06/21 10:29:07;;;;;;;11.30;5.30;;;;;;;31.96;40.66;100542.84;4421398;32;20514;-71
2021/06/21 10:31:34;;;;;;;9.60;5.35;;;;;;;32.96;39.65;100534.69;4420096;32;20037;-70
2021/06/21 10:34:05;;;;;;;9.45;5.07;;;;;;;32.85;39.39;100532.00;4421551;32;20052;-70
2021/06/21 10:36:42;;;;;;;7.72;5.20;;;;;;;31.59;41.06;100524.13;4421966;32;20416;-71
2021/06/21 10:39:12;;;;;;;9.35;5.05;;;;;;;32.53;39.80;100527.81;4421512;32;20029;-71
2021/06/21 10:41:39;;;;;;;6.87;4.97;;;;;;;33.70;38.75;100519.66;4420084;32;20072;-70
2021/06/21 10:44:06;;;;;;;9.30;4.80;;;;;;;33.00;38.78;100505.37;4421491;32;20035;-69
2021/06/21 10:46:34;;;;;;;9.32;5.50;;;;;;;30.62;42.64;100505.19;4419424;32;20117;-69
2021/06/21 10:49:35;;;;;;;8.00;5.18;;;;;;;29.47;45.11;100491.00;4419950;32;20120;-70
2021/06/21 10:52:22;;;;;;;8.38;5.47;;;;;;;29.61;46.25;100486.38;4421024;32;20046;-71
2021/06/21 10:54:49;;;;;;;13.65;5.45;;;;;;;30.81;43.52;100485.38;4420019;32;20042;-70
2021/06/21 10:57:19;;;;;;;7.57;5.50;;;;;;;31.15;42.46;100493.88;4421114;32;20121;-70
2021/06/21 11:00:15;;;;;;;7.20;5.50;;;;;;;30.84;43.63;100493.00;4420568;32;20590;-70
2021/06/21 11:02:41;;;;;;;;;;;;;;;29.26;45.91;100477.91;4420100;32;20046;-70
2021/06/21 11:05:11;;;;;;;9.52;5.72;;;;;;;28.42;49.00;100476.91;4421288;32;19951;-70
2021/06/21 11:07:38;;;;;;;11.38;6.20;;;;;;;27.73;50.05;100470.13;4419751;32;20136;-70
2021/06/21 11:10:09;;;;;;;7.43;6.05;;;;;;;27.25;51.01;100478.22;4419155;32;20117;-70
2021/06/21 11:12:41;;;;;;;8.57;5.65;;;;;;;27.06;51.67;100487.78;4419708;32;20029;-70
2021/06/21 11:15:17;;;;;;;17.83;6.30;;;;;;;26.96;50.86;100482.81;4421294;32;20042;-70
2021/06/21 11:17:58;;;;;;;9.23;5.80;;;;;;;26.67;53.03;100483.91;4421511;32;20453;-69
2021/06/21 11:20:31;;;;;;;8.50;6.12;;;;;;;26.55;52.82;100485.44;4421269;32;20141;-69
2021/06/21 11:23:00;;;;;;;10.18;6.03;;;;;;;26.41;53.53;100474.66;4421053;32;20042;-69
2021/06/21 11:25:29;;;;;;;9.35;6.05;;;;;;;26.37;53.43;100452.06;4419139;32;20536;-69
2021/06/21 11:27:56;;;;;;;9.15;6.30;;;;;;;26.16;56.35;100452.94;4420829;32;20124;-70
2021/06/21 11:30:29;;;;;;;10.38;6.00;;;;;;;26.46;52.62;100466.91;4421193;32;20479;-69
2021/06/21 11:32:59;;;;;;;8.90;5.50;;;;;;;26.47;52.95;100470.41;4421186;32;20030;-70
2021/06/21 11:35:52;;;;;;;11.90;6.18;;;;;;;26.40;53.90;100437.50;4421304;32;20104;-70
2021/06/21 11:38:44;;;;;;;8.77;5.57;;;;;;;26.14;55.79;100452.31;4420956;32;20080;-70